Harris, MO

12:50 AM CDT on July 24, 2014 (GMT -0500)
Unionville MO (KMOUNION6) Elev 1053 ft | 40.39 °N, 93.06 °W | Change Station

Current weather conditions updated 2 seconds ago

Clear
Clear
60.8 °F
Feels Like 60.8 °F
N
0.0
Wind Variable Wind from NE
Gusts 0.0 mph

Today is forecast to be Cooler than yesterday.

Today
High -- | Low -- °F
--% Chance of Precip.
Yesterday
High -- | Low -- °F
Precip. -- in
6:03 AM 8:35 PM
Waning Crescent, 7% visible
Pressure 30.17 in
Visibility 10.0 miles
Clouds Clear
Dew Point 58 °F
Humidity 92%
Rainfall 0.00 in
Snow Depth Not available.
UV 0 out of 12
Pollen 5.70 out of 12
Air Quality Not available.
Flu Activity Not available.
METAR KTVK 240535Z AUTO 00000KT 10SM CLR 14/14 A3017 RMK AO2

More Conditions Fewer Conditions

Pressure 30.17 in
Visibility 10.0 miles
Clouds Clear
Dew Point 58 °F
Humidity 92%
Rainfall 0.00 in
Snow Depth Not available.
UV 0 out of 12
Pollen 5.70 out of 12
Air Quality Not available.
Flu Activity Not available.
METAR KTVK 240535Z AUTO 00000KT 10SM CLR 14/14 A3017 RMK AO2

More Conditions Fewer Conditions

10-Day Weather Forecast

Almanac

Astronomy

Jul. 24, 2014 Rise Set
Actual Time 6:03 AM CDT 8:35 PM CDT
Civil Twilight 5:32 AM CDT 9:06 PM CDT
Nautical Twilight 4:53 AM CDT 9:45 PM CDT
Astronomical Twilight 4:10 AM CDT 10:28 PM CDT
Moon 4:12 AM CDT 6:51 PM CDT
Length of Visible Light 15h 34m
Length of Day
14h 31m
Tomorrow will be 1m 46s shorter.
Waning Crescent, 7% of the Moon is Illuminated
Today
Waning Crescent
Jul 26
New
Aug 3
First Quarter
Aug 10
Full
Aug 17
Last Quarter

Today's Extremes

State Highs State Lows

Community

WunderPhotos

Upload Photos

1,736,923 photos uploaded!

Nearby

Snow Depth

Station Depth Elevation
No new snow has been reported.

Earthquake Activity

City Distance Mag. Time & Date
No recent earthquake activity has been reported nearby.
Minimum magnitude displayed is 2.5.

Coastal Water Temperatures

Place Temperature
No Stations Reporting

Nearby Weather Stations

Station Location Temp. Dew Point Humidity Wind Precip. Elev Updated Type
Unionville MO, Unionville, MO 60.8 °F 58 °F 92% NE  at  0.0 mph 0.00 in / hr 1053 ft 12:50 AM CDT Rapid Fire
Milan, MO 60.3 °F 54 °F 80% East  at  0.0 mph 0.00 in / hr 910 ft 12:50 AM CDT Rapid Fire
MesoWest TINDAL , Trenton, MO 67 °F - - North  at  - 0.00 in / hr 774 ft 10:45 PM CDT MADIS
MesoWest SPICKARD , Gilman City, MO 67 °F 59 °F 74% NE  at  2 mph 0.00 in / hr 911 ft 11:00 PM CDT MADIS
MesoWest LINEVL , Lineville, IA 67 °F - - North  at  - 0.00 in / hr 1098 ft 9:50 PM CDT MADIS
North Central Missouri, Browning, MO 62.5 °F 61 °F 95% North  at  0.0 mph 0.00 in / hr 810 ft 12:49 AM CDT Rapid Fire
trenton mo, Trenton, MO 66.6 °F 60 °F 80% NNE  at  0.0 mph 0.00 in / hr 850 ft 12:49 AM CDT Rapid Fire
Big Rock, Trenton, MO 66.0 °F 61 °F 85% NW  at  2.2 mph - / hr 814 ft 12:47 AM CDT Normal

Show More Stations Show Fewer Stations